Nearby METAR Reports

 

KORD - Chicago O'hare, Illinois, USA
Distance from station: ESE 10mi, 16km
Updated: Wed, 18-Oct-2017 2:51am CDT
Clear
Clear
 Wind from S
Wind: S 10 mph , 17 km/h
Temperature: 54°F , 12°C
Dew Point: 39°F , 4°C
Humidity: 58%
Barometer: 30.14 inHg , 1020.7 hPa
Clouds: Clear
Visibility: 10 miles , 16 km
2017/10/18 07:51 KORD 180751Z 19009KT 10SM CLR 12/04 A3014 RMK AO2 SLP206 T01170044
KDPA - Chicago/Dupage, Illinois, USA
Distance from station: SW 11mi, 18km
Updated: Wed, 18-Oct-2017 3:52am CDT
Clear
Clear
 Wind from S
Wind: S 6 mph , 9 km/h
Temperature: 45°F , 7°C
Wind Chill: 42°F , 6°C
Dew Point: 41°F , 5°C
Humidity: 87%
Barometer: 30.14 inHg , 1020.7 hPa
Clouds: Clear
Visibility: 10 miles , 16 km
2017/10/18 08:52 KDPA 180852Z 18005KT 10SM CLR 07/05 A3014 RMK AO2 SLP207 T00720050 50000
 
KPWK - Palwaukee, Illinois, USA
Distance from station: ENE 12mi, 19km
Updated: Wed, 18-Oct-2017 3:52am CDT
Clear
Clear
 Wind from S
Wind: S 5 mph , 7 km/h
Temperature: 50°F , 10°C
Wind Chill: 48°F , 9°C
Dew Point: 41°F , 5°C
Humidity: 71%
Barometer: 30.16 inHg , 1021.3 hPa
Clouds: Clear
Visibility: 10 miles , 16 km
2017/10/18 08:52 KPWK 180852Z AUTO 18004KT 10SM CLR 10/05 A3016 RMK AO2 SLP211 T01000050 55000
KMDW - Chicago, Illinois, USA
Distance from station: SE 26mi, 41km
Updated: Wed, 18-Oct-2017 3:53am CDT
Clear
Clear
 Wind from S
Wind: S 7 mph , 11 km/h
Temperature: 52°F , 11°C
Dew Point: 39°F , 4°C
Humidity: 62%
Barometer: 30.16 inHg , 1021.3 hPa
Clouds: Clear
Visibility: 10 miles , 16 km
2017/10/18 08:53 KMDW 180853Z 19006KT 10SM CLR 11/04 A3016 RMK AO2 SLP211 T01060044 51002
 
KARR - Chicago/Aurora, Illinois, USA
Distance from station: SW 27mi, 43km
Updated: Wed, 18-Oct-2017 3:52am CDT
Clear
Clear
 Wind from calm
Wind: Calm
Temperature: 43°F , 6°C
Dew Point: 39°F , 4°C
Humidity: 87%
Barometer: 30.15 inHg , 1021 hPa
Clouds: Clear
Visibility: 10 miles , 16 km
2017/10/18 08:52 KARR 180852Z AUTO 00000KT 10SM CLR 06/04 A3015 RMK AO2 SLP211 T00610044 58001
KUGN - Waukegan, Illinois, USA
Distance from station: NNE 29mi, 47km
Updated: Wed, 18-Oct-2017 3:55am CDT
Clear
Clear
 Wind from SSW
Wind: SSW 8 mph , 13 km/h
Temperature: 48°F , 9°C
Wind Chill: 44°F , 7°C
Dew Point: 41°F , 5°C
Humidity: 76%
Barometer: 30.12 inHg , 1020 hPa
Clouds: Clear
Visibility: 10 miles , 16 km
2017/10/18 08:55 KUGN 180855Z AUTO 20007KT 10SM CLR 09/05 A3012 RMK AO2 SLP197 T00890050 58000 $
 
KLOT - Romeoville/Chi, Illinois, USA
Distance from station: S 30mi, 49km
Updated: Wed, 18-Oct-2017 3:35am CDT
Clear
Clear
 Wind from S
Wind: S 7 mph , 11 km/h
Temperature: 43°F , 6°C
Wind Chill: 39°F , 4°C
Dew Point: 41°F , 5°C
Humidity: 93%
Barometer: 30.16 inHg , 1021.3 hPa
Clouds: Clear
Visibility: 10 miles , 16 km
2017/10/18 08:35 KLOT 180835Z AUTO 17006KT 10SM CLR 06/05 A3016 RMK AO2 T00630045
KDKB - De Kalb, Illinois, USA
Distance from station: WSW 31mi, 50km
Updated: Wed, 18-Oct-2017 3:35am CDT
Clear
Clear
 Wind from S
Wind: S 8 mph , 13 km/h
Temperature: 43°F , 6°C
Wind Chill: 38°F , 3°C
Dew Point: 41°F , 5°C
Humidity: 93%
Barometer: 30.14 inHg , 1020.7 hPa
Clouds: Clear
Visibility: 10 miles , 16 km
2017/10/18 08:35 KDKB 180835Z AUTO 18007KT 10SM CLR 06/05 A3014 RMK AO2 T00570045
 
KJOT - Joliet, Illinois, USA
Distance from station: S 36mi, 58km
Updated: Wed, 18-Oct-2017 3:35am CDT
Clear
Clear
 Wind from calm
Wind: Calm
Temperature: 45°F , 7°C
Dew Point: 43°F , 6°C
Humidity: 93%
Barometer: 30.16 inHg , 1021.3 hPa
Clouds: Clear
Visibility: 10 miles , 16 km
2017/10/18 08:35 KJOT 180835Z AUTO 00000KT 10SM CLR 07/06 A3016 RMK AO2 T00710056
KENW - Kenosha, Wisconsin, USA
Distance from station: NNE 40mi, 64km
Updated: Wed, 18-Oct-2017 3:53am CDT
Clear
Clear
 Wind from SSW
Wind: SSW 8 mph , 13 km/h
Temperature: 48°F , 9°C
Wind Chill: 44°F , 7°C
Dew Point: 41°F , 5°C
Humidity: 76%
Barometer: 30.12 inHg , 1020 hPa
Clouds: Clear
Visibility: 10 miles , 16 km
2017/10/18 08:53 KENW 180853Z AUTO 20007KT 10SM CLR 09/05 A3012 RMK AO2 SLP199 T00940050 58003
 
KC09 - Morris-Washburn, Illinois, USA
Distance from station: SSW 45mi, 72km
Updated: Wed, 18-Oct-2017 3:35am CDT
Clear
Clear
 Wind from SSE
Wind: SSE 5 mph , 7 km/h
Temperature: 45°F , 7°C
Wind Chill: 42°F , 6°C
Dew Point: 39°F , 4°C
Humidity: 81%
Barometer: 30.15 inHg , 1021 hPa
Clouds: Clear
Visibility: 10 miles , 16 km
2017/10/18 08:35 KC09 180835Z AUTO 16004KT 10SM CLR 07/04 A3015 RMK AO2 T00690041
KBUU - Burlington, Wisconsin, USA
Distance from station: NNW 46mi, 73km
Updated: Wed, 18-Oct-2017 3:30am CDT
Clear
Clear
 Wind from SSW
Wind: SSW 8 mph , 13 km/h
Temperature: 48°F , 9°C
Wind Chill: 44°F , 7°C
Dew Point: 43°F , 6°C
Humidity: 82%
Barometer: 30.11 inHg , 1019.6 hPa
Clouds: Clear
Visibility: 10 miles , 16 km
2017/10/18 08:30 KBUU 180830Z AUTO 21007KT 10SM CLR 09/06 A3011 RMK AO2 T00900057
 
KGYY - Gary Regional, Indiana, USA
Distance from station: SE 46mi, 74km
Updated: Wed, 18-Oct-2017 3:35am CDT
Clear
Clear
 Wind from S
Wind: S 6 mph , 9 km/h
Temperature: 54°F , 12°C
Dew Point: 39°F , 4°C
Humidity: 58%
Barometer: 30.18 inHg , 1022 hPa
Clouds: Clear
Visibility: 10 miles , 16 km
2017/10/18 08:35 KGYY 180835Z AUTO 19005KT 10SM CLR 12/04 A3018 RMK AO2 T01160036
KIGQ - Chicago/Lansing, Illinois, USA
Distance from station: SE 46mi, 74km
Updated: Wed, 18-Oct-2017 3:55am CDT
Clear
Clear
 Wind from S
Wind: S 5 mph , 7 km/h
Temperature: 46°F , 8°C
Wind Chill: 44°F , 7°C
Dew Point: 41°F , 5°C
Humidity: 82%
Barometer: 30.19 inHg , 1022.4 hPa
Clouds: Clear
Visibility: 10 miles , 16 km
2017/10/18 08:55 KIGQ 180855Z AUTO 19004KT 10SM CLR 08/05 A3019 RMK AO2 T00750050